Monkerai, Australia

10:02 PM AEST on June 25, 2018 (GMT +1000)
Stroud Road | | Change Station

Elev 362 ft 32.35 °S, 151.95 °E | Updated 41 seconds ago

Clear
Clear
46 °F
Feels Like 46 °F
N
0
Wind Variable Wind from SE
Gusts 0.0 mph

Today
High -- | Low -- °F
--% Chance of Precip.
Yesterday
High -- | Low -- °F
Precip. -- in
Pressure 30.45 in
Visibility 6.2 miles
Clouds
Windchill 46 °F
Dew Point 44 °F
Humidity 94%
Rainfall 0.00 in
Snow Depth Not available.
6:54 AM 4:56 PM
Waxing Gibbous, 93% visible
METAR YWLM 251200Z AUTO 31005KT 9999 // NCD 07/06 Q1031
Pressure 30.45 in
Visibility 6.2 miles
Clouds
Windchill 46 °F
Dew Point 44 °F
Humidity 94%
Rainfall 0.00 in
Snow Depth Not available.
6:54 AM 4:56 PM
Waxing Gibbous, 93% visible
METAR YWLM 251200Z AUTO 31005KT 9999 // NCD 07/06 Q1031

Get Severe Weather Alerts

Thanks for signing up!

Be on the lookout for a verification email in your inbox.

You'll start receiving the daily forecast at 6 AM.

×

10-Day Weather Forecast

×

Almanac

Astronomy

Jun. 25, 2018 Rise Set
Actual Time
Civil Twilight
Nautical Twilight
Astronomical Twilight
Moon
Length of Visible Light
Length of Day
Tomorrow will be .
, % of the Moon is Illuminated

Today's Extremes

Country Highs Country Lows

Community

WunderPhotos

Category 6

Welcome to Category 6. This is the collective home for Weather Underground's featured writeups by Dr. Jeff Masters (right), Bob Henson (left), Chris Burt, and other regular contributors.

Nearby

Air Quality

  Air Quality AQ Index Pollutant
Not available.

Snow Depth

Station Depth Elevation

Earthquake Activity

City Distance Mag. Time & Date
Minimum magnitude displayed is 2.5.

Coastal Water Temperatures

Place Temperature

Stations

Nearby Weather Stations

Station Location Temp. Windchill Dew Point Humidity Wind Precip. Elev Updated Type